Time;durP1;ratioP1;P1;durP2;ratioP2;P2;SDS_P1;SDS_P2;PMS_P1;PMS_P2;Temp;Humidity;BMP_temperature;BMP_pressure;BME280_temperature;BME280_humidity;BME280_pressure;Samples;Min_cycle;Max_cycle;Signal;HPM_P1;HPM_P2
2022/06/09 00:01:58;;;;;;;8.00;1.87;;;14.20;99.90;;;;;;6708047;88;20180;-81
2022/06/09 00:11:58;;;;;;;9.50;1.42;;;14.30;99.90;;;;;;6707130;88;20211;-80
2022/06/09 00:21:59;;;;;;;9.00;1.62;;;14.20;99.90;;;;;;6708003;88;20618;-80
2022/06/09 00:31:59;;;;;;;10.52;1.50;;;14.30;99.90;;;;;;6705208;88;20274;-81
2022/06/09 00:42:01;;;;;;;10.32;1.90;;;14.10;99.90;;;;;;6707626;88;20194;-80
2022/06/09 00:52:04;;;;;;;6.78;1.60;;;14.10;99.90;;;;;;6654965;89;20209;-81
2022/06/09 01:02:07;;;;;;;8.75;1.80;;;14.10;99.90;;;;;;6672416;89;20212;-80
2022/06/09 01:12:33;;;;;;;6.32;1.60;;;14.00;99.90;;;;;;6702018;89;20194;-81
2022/06/09 01:23:03;;;;;;;6.80;1.50;;;13.90;99.90;;;;;;6707102;89;20232;-81
2022/06/09 01:33:23;;;;;;;9.23;1.45;;;14.20;99.90;;;;;;6686150;89;20753;-80
2022/06/09 01:43:24;;;;;;;5.72;1.70;;;14.00;99.90;;;;;;6685019;89;20267;-81
2022/06/09 01:53:50;;;;;;;7.07;1.80;;;14.20;99.90;;;;;;6689165;89;20203;-81
2022/06/09 02:03:55;;;;;;;6.57;1.40;;;14.10;99.90;;;;;;6689480;89;20201;-81
2022/06/09 02:13:57;;;;;;;8.13;1.87;;;14.30;99.90;;;;;;6693122;89;20233;-80
2022/06/09 02:23:58;;;;;;;4.53;1.90;;;14.30;99.90;;;;;;6692738;89;20664;-80
2022/06/09 02:33:59;;;;;;;5.90;1.87;;;14.20;99.90;;;;;;6692117;89;20634;-80
2022/06/09 02:44:00;;;;;;;8.02;2.10;;;14.20;99.90;;;;;;6691678;89;20199;-80
2022/06/09 02:54:10;;;;;;;6.93;2.03;;;14.20;99.90;;;;;;6689330;89;20205;-82
2022/06/09 03:04:11;;;;;;;8.07;2.30;;;14.20;99.90;;;;;;6693984;89;20247;-82
2022/06/09 03:14:12;;;;;;;10.97;2.63;;;14.20;99.90;;;;;;6688762;89;20221;-81
2022/06/09 03:24:12;;;;;;;9.93;2.30;;;14.10;99.90;;;;;;6687200;89;20576;-81
2022/06/09 03:34:14;;;;;;;9.35;2.47;;;13.80;99.90;;;;;;6686690;89;20184;-81
2022/06/09 03:44:14;;;;;;;7.97;2.62;;;14.00;99.90;;;;;;6690828;89;20209;-81
2022/06/09 03:54:15;;;;;;;12.55;3.65;;;13.80;99.90;;;;;;6691571;89;20151;-81
2022/06/09 04:04:15;;;;;;;9.83;3.30;;;13.40;99.90;;;;;;6699122;89;20234;-82
2022/06/09 04:14:16;;;;;;;10.90;3.23;;;13.40;99.90;;;;;;6699771;89;20255;-82
2022/06/09 04:24:17;;;;;;;10.15;3.90;;;13.20;99.90;;;;;;6699812;89;20531;-82
2022/06/09 04:34:18;;;;;;;12.15;3.55;;;13.40;99.90;;;;;;6699184;89;20184;-79
2022/06/09 04:44:18;;;;;;;10.57;3.70;;;13.40;99.90;;;;;;6698309;89;20266;-81
2022/06/09 04:54:19;;;;;;;9.13;3.75;;;13.40;99.90;;;;;;6698392;89;20738;-80
2022/06/09 05:04:19;;;;;;;8.80;4.05;;;13.70;99.90;;;;;;6698384;89;20502;-80
2022/06/09 05:14:20;;;;;;;15.82;4.28;;;13.80;99.90;;;;;;6698233;89;20223;-80
2022/06/09 05:24:20;;;;;;;9.13;4.50;;;13.80;99.90;;;;;;6698155;89;20182;-81
2022/06/09 05:34:21;;;;;;;12.10;4.68;;;13.70;99.90;;;;;;6692457;89;20232;-81
2022/06/09 05:54:41;;;;;;;11.50;4.62;;;13.90;99.90;;;;;;6694813;89;20763;-81
2022/06/09 06:04:42;;;;;;;10.20;4.53;;;14.10;99.90;;;;;;6694791;89;20408;-81
2022/06/09 06:14:43;;;;;;;11.60;4.30;;;14.30;99.90;;;;;;6692858;89;20211;-81
2022/06/09 06:24:44;;;;;;;9.88;4.53;;;14.50;99.90;;;;;;6689487;89;20211;-81
2022/06/09 06:34:44;;;;;;;13.20;4.72;;;14.50;99.90;;;;;;6689326;89;20225;-81
2022/06/09 06:44:45;;;;;;;14.27;4.60;;;14.80;99.90;;;;;;6686328;89;20811;-81
2022/06/09 06:54:45;;;;;;;11.10;5.05;;;14.70;99.90;;;;;;6690163;89;20222;-81
2022/06/09 07:04:46;;;;;;;10.63;4.85;;;15.00;99.90;;;;;;6690528;89;20312;-80
2022/06/09 07:14:46;;;;;;;12.70;4.90;;;15.40;99.90;;;;;;6690114;89;20382;-80
2022/06/09 07:24:47;;;;;;;14.38;5.00;;;15.40;99.90;;;;;;6693406;89;20258;-81
2022/06/09 07:34:48;;;;;;;10.80;4.72;;;15.70;99.90;;;;;;6693045;89;20812;-81
2022/06/09 07:44:49;;;;;;;12.55;4.20;;;16.00;99.90;;;;;;6689377;89;20206;-81
2022/06/09 07:54:50;;;;;;;13.43;4.10;;;16.30;99.90;;;;;;6690289;89;20627;-81
2022/06/09 08:04:50;;;;;;;12.93;4.20;;;16.40;99.90;;;;;;6691619;89;20167;-80
2022/06/09 08:14:51;;;;;;;10.77;4.20;;;16.60;99.90;;;;;;6685387;89;20205;-80
2022/06/09 08:24:51;;;;;;;12.57;4.00;;;16.70;99.90;;;;;;6682277;89;20251;-80
2022/06/09 08:34:52;;;;;;;11.57;3.87;;;16.80;99.90;;;;;;6686178;89;20203;-80
2022/06/09 08:45:02;;;;;;;11.45;3.45;;;17.50;99.90;;;;;;6686857;89;20224;-80
2022/06/09 08:55:23;;;;;;;8.07;3.35;;;18.00;99.90;;;;;;6686757;89;20238;-81
2022/06/09 09:05:44;;;;;;;11.43;3.72;;;18.10;99.90;;;;;;6685571;89;20166;-80
2022/06/09 09:15:51;;;;;;;9.60;4.00;;;18.10;99.90;;;;;;6671201;89;20650;-80
2022/06/09 09:26:15;;;;;;;7.10;3.72;;;17.70;99.90;;;;;;6667774;89;20676;-80
2022/06/09 09:36:35;;;;;;;9.80;4.70;;;17.80;99.90;;;;;;6673496;89;20189;-80
2022/06/09 09:46:35;;;;;;;12.15;4.15;;;18.20;99.90;;;;;;6673395;89;20199;-80
2022/06/09 09:56:37;;;;;;;11.57;4.03;;;18.90;99.90;;;;;;6669550;89;20217;-81
2022/06/09 10:17:25;;;;;;;8.73;3.60;;;19.10;99.90;;;;;;6687274;89;20608;-81
2022/06/09 10:27:35;;;;;;;8.43;3.08;;;18.80;99.90;;;;;;6687013;89;20195;-81
2022/06/09 10:38:02;;;;;;;6.53;2.80;;;20.90;99.90;;;;;;6687386;89;20222;-81
2022/06/09 10:59:03;;;;;;;6.32;2.47;;;22.70;99.90;;;;;;6685929;89;20192;-82
2022/06/09 11:09:32;;;;;;;9.40;2.85;;;23.20;99.90;;;;;;6683682;89;20241;-80
2022/06/09 11:19:44;;;;;;;8.70;2.28;;;23.10;99.90;;;;;;6684694;89;20258;-80
2022/06/09 11:29:59;;;;;;;7.80;2.33;;;22.20;99.90;;;;;;6684436;89;20743;-80
2022/06/09 11:40:39;;;;;;;8.30;2.15;;;22.90;99.90;;;;;;6728006;77;20194;-80
2022/06/09 11:50:42;;;;;;;7.37;2.15;;;23.00;99.90;;;;;;6721747;88;20195;-79
2022/06/09 12:00:43;;;;;;;8.82;2.20;;;21.90;99.90;;;;;;6718334;88;20355;-79
2022/06/09 12:11:08;;;;;;;6.05;2.28;;;22.70;99.90;;;;;;6718112;88;20171;-79
2022/06/09 12:21:35;;;;;;;10.55;2.90;;;22.00;99.90;;;;;;6726648;88;20229;-79
2022/06/09 12:31:37;;;;;;;6.97;2.25;;;20.80;99.90;;;;;;6715879;88;20210;-79
2022/06/09 12:41:43;;;;;;;7.25;2.08;;;20.70;99.90;;;;;;6721625;88;20217;-79
2022/06/09 12:51:44;;;;;;;8.60;1.90;;;20.80;99.90;;;;;;6717392;88;20237;-79
2022/06/09 13:02:02;;;;;;;8.07;2.03;;;22.00;99.90;;;;;;6720525;88;20218;-81
2022/06/09 13:22:35;;;;;;;11.05;2.17;;;22.00;99.90;;;;;;6717815;88;20241;-78
2022/06/09 13:32:45;;;;;;;7.27;1.80;;;22.10;99.90;;;;;;6714951;88;20341;-79
2022/06/09 13:42:52;;;;;;;6.30;1.75;;;24.30;95.50;;;;;;6716089;88;20316;-78
2022/06/09 13:53:15;;;;;;;5.18;1.55;;;22.70;99.80;;;;;;6720531;88;20189;-79
2022/06/09 14:03:21;;;;;;;3.33;0.90;;;23.90;97.40;;;;;;6717127;88;20213;-78
2022/06/09 14:13:22;;;;;;;1.50;0.65;;;23.40;95.00;;;;;;6724352;88;20201;-79
2022/06/09 14:23:31;;;;;;;2.03;0.70;;;22.80;98.10;;;;;;6724939;88;20278;-78
2022/06/09 14:33:32;;;;;;;2.12;0.60;;;23.40;94.90;;;;;;6724114;88;20181;-79
2022/06/09 14:43:33;;;;;;;2.10;0.85;;;23.20;94.00;;;;;;6723506;88;20204;-78
2022/06/09 14:53:34;;;;;;;2.37;0.80;;;24.10;93.60;;;;;;6723711;88;20200;-78
2022/06/09 15:03:34;;;;;;;1.90;0.70;;;24.00;93.20;;;;;;6722802;88;20192;-79
2022/06/09 15:13:35;;;;;;;1.65;0.80;;;22.90;93.10;;;;;;6722755;88;20208;-78
2022/06/09 15:23:36;;;;;;;3.08;0.62;;;22.20;95.30;;;;;;6723087;88;20243;-78
2022/06/09 15:33:37;;;;;;;3.90;1.10;;;21.90;96.40;;;;;;6718367;88;20201;-78
2022/06/09 15:43:38;;;;;;;2.53;1.00;;;21.50;99.00;;;;;;6722223;88;20260;-78
2022/06/09 15:53:38;;;;;;;3.95;1.40;;;21.80;99.90;;;;;;6723527;88;20241;-78
2022/06/09 16:03:40;;;;;;;3.00;1.90;;;21.20;99.70;;;;;;6722532;88;20366;-78
2022/06/09 16:13:40;;;;;;;3.72;2.20;;;22.00;98.60;;;;;;6722337;88;20561;-79
2022/06/09 16:23:42;;;;;;;6.10;2.78;;;20.80;99.90;;;;;;6719800;88;20393;-78
2022/06/09 16:33:43;;;;;;;5.10;2.22;;;20.50;99.90;;;;;;6726014;88;20252;-78
2022/06/09 16:43:44;;;;;;;3.85;1.98;;;20.60;99.90;;;;;;6721968;88;20222;-79
2022/06/09 16:53:44;;;;;;;3.43;1.57;;;21.20;99.90;;;;;;6704246;88;20230;-78
2022/06/09 17:03:45;;;;;;;3.67;1.70;;;21.60;99.90;;;;;;6704263;88;20712;-78
2022/06/09 17:13:47;;;;;;;2.72;1.90;;;21.50;99.90;;;;;;6703914;88;20211;-79
2022/06/09 17:23:48;;;;;;;4.80;1.60;;;22.00;99.90;;;;;;6701011;88;20177;-78
2022/06/09 17:33:49;;;;;;;5.32;2.10;;;21.70;99.90;;;;;;6705735;88;20224;-79
2022/06/09 17:43:49;;;;;;;4.25;2.00;;;21.90;99.90;;;;;;6707096;88;20218;-79
2022/06/09 17:53:50;;;;;;;2.90;2.10;;;22.20;99.90;;;;;;6702274;88;20254;-79
2022/06/09 18:03:51;;;;;;;3.47;2.28;;;23.20;99.10;;;;;;6707012;88;20193;-79
2022/06/09 18:13:51;;;;;;;3.97;2.35;;;22.20;99.90;;;;;;6706395;88;20639;-78
2022/06/09 18:23:52;;;;;;;4.27;2.10;;;22.50;99.90;;;;;;6706108;88;20276;-79
2022/06/09 18:33:54;;;;;;;3.45;1.60;;;22.50;99.90;;;;;;6707117;88;20538;-79
2022/06/09 18:43:55;;;;;;;4.65;1.60;;;21.40;99.90;;;;;;6706431;88;20287;-78
2022/06/09 18:53:56;;;;;;;7.28;1.92;;;20.70;99.90;;;;;;6705288;88;20377;-78
2022/06/09 19:03:57;;;;;;;4.45;1.90;;;19.60;99.90;;;;;;6708331;88;20210;-79
2022/06/09 19:14:00;;;;;;;4.78;1.98;;;18.80;99.90;;;;;;6706922;88;20241;-79
2022/06/09 19:24:01;;;;;;;4.95;1.80;;;18.40;99.90;;;;;;6705223;88;20211;-79
2022/06/09 19:34:03;;;;;;;4.03;1.80;;;18.10;99.90;;;;;;6706349;88;20660;-79
2022/06/09 19:44:04;;;;;;;2.72;2.00;;;17.80;99.90;;;;;;6704796;88;20250;-79
2022/06/09 19:54:06;;;;;;;4.80;2.15;;;17.30;99.90;;;;;;6705554;88;20770;-79
2022/06/09 20:04:07;;;;;;;4.78;2.00;;;17.10;99.90;;;;;;6705622;88;20199;-79
2022/06/09 20:14:07;;;;;;;3.97;2.30;;;16.90;99.90;;;;;;6701363;88;20189;-79
2022/06/09 20:24:08;;;;;;;5.40;2.60;;;16.80;99.90;;;;;;6705647;88;20237;-79
2022/06/09 20:34:08;;;;;;;5.40;2.25;;;16.80;99.90;;;;;;6705480;88;20223;-78
2022/06/09 20:44:09;;;;;;;3.70;2.50;;;16.70;99.90;;;;;;6706243;88;20301;-78
2022/06/09 20:54:10;;;;;;;7.40;2.72;;;16.40;99.90;;;;;;6710808;88;20205;-78
2022/06/09 21:04:12;;;;;;;5.32;3.00;;;16.20;99.90;;;;;;6705060;88;20190;-79
2022/06/09 21:24:31;;;;;;;7.10;2.97;;;15.80;99.90;;;;;;6704779;88;20640;-79
2022/06/09 21:34:32;;;;;;;7.70;3.42;;;15.70;99.90;;;;;;6704568;88;20204;-79
2022/06/09 21:44:32;;;;;;;5.15;3.05;;;15.60;99.90;;;;;;6706149;88;20197;-79
2022/06/09 21:54:33;;;;;;;5.12;3.10;;;15.20;99.90;;;;;;6704714;88;20209;-79
2022/06/09 22:04:36;;;;;;;5.90;3.50;;;14.90;99.90;;;;;;6704156;88;20702;-78
2022/06/09 22:14:36;;;;;;;5.50;3.10;;;14.70;99.90;;;;;;6702637;88;20195;-78
2022/06/09 22:24:38;;;;;;;6.60;3.40;;;14.50;99.90;;;;;;6706583;88;20719;-78
2022/06/09 22:34:39;;;;;;;4.65;3.20;;;14.60;99.90;;;;;;6706114;88;20705;-78
2022/06/09 22:44:39;;;;;;;7.37;3.72;;;14.40;99.90;;;;;;6705630;88;20198;-78
2022/06/09 22:54:40;;;;;;;4.68;3.22;;;14.20;99.90;;;;;;6705960;88;20613;-78
2022/06/09 23:04:40;;;;;;;5.47;3.08;;;14.30;99.90;;;;;;6706174;88;20317;-80
2022/06/09 23:14:41;;;;;;;7.20;3.40;;;13.90;99.90;;;;;;6706556;88;20655;-80
2022/06/09 23:24:42;;;;;;;7.03;3.20;;;13.80;99.90;;;;;;6707620;88;20209;-79
2022/06/09 23:55:06;;;;;;;5.05;3.10;;;13.80;99.90;;;;;;6688592;88;20207;-79
